createdAt,value
2023-06-19T00:02:09.474Z,23.75
2023-06-19T00:04:31.082Z,23.65
2023-06-19T00:06:52.625Z,23.59
2023-06-19T00:09:14.414Z,23.45
2023-06-19T00:11:35.881Z,23.56
2023-06-19T00:13:57.397Z,23.54
2023-06-19T00:16:20.292Z,23.58
2023-06-19T00:18:42.100Z,23.67
2023-06-19T00:21:06.785Z,23.63
2023-06-19T00:23:28.270Z,23.67
2023-06-19T00:25:49.942Z,23.61
2023-06-19T00:28:15.083Z,23.64
2023-06-19T00:30:36.621Z,23.44
2023-06-19T00:32:58.708Z,23.38
2023-06-19T00:35:20.259Z,23.30
2023-06-19T00:37:45.672Z,23.20
2023-06-19T00:40:11.642Z,23.28
2023-06-19T00:42:33.111Z,23.32
2023-06-19T00:44:54.557Z,23.36
2023-06-19T00:47:16.115Z,23.40
2023-06-19T00:49:37.599Z,23.37
2023-06-19T00:51:59.416Z,23.32
2023-06-19T00:54:22.237Z,23.40
2023-06-19T00:56:43.704Z,23.46
2023-06-19T00:59:08.949Z,23.50
2023-06-19T01:01:30.584Z,23.47
2023-06-19T01:03:52.150Z,23.55
2023-06-19T01:06:25.956Z,23.57
2023-06-19T01:08:54.433Z,23.48
2023-06-19T01:11:26.663Z,23.56
2023-06-19T01:13:57.049Z,23.62
2023-06-19T01:16:19.270Z,23.55
2023-06-19T01:18:41.362Z,23.65
2023-06-19T01:21:13.780Z,23.45
2023-06-19T01:23:35.252Z,23.48
2023-06-19T01:25:56.701Z,23.50
2023-06-19T01:28:18.177Z,23.53
2023-06-19T01:30:42.697Z,23.21
2023-06-19T01:33:07.873Z,23.29
2023-06-19T01:35:34.109Z,23.23
2023-06-19T01:37:57.149Z,23.14
2023-06-19T01:40:22.799Z,23.15
2023-06-19T01:42:44.912Z,23.20
2023-06-19T01:45:07.773Z,23.31
2023-06-19T01:47:29.327Z,23.36
2023-06-19T01:49:50.851Z,23.28
2023-06-19T01:52:12.329Z,23.23
2023-06-19T01:54:33.814Z,23.19
2023-06-19T01:56:55.372Z,23.11
2023-06-19T01:59:16.834Z,23.08
2023-06-19T02:01:38.391Z,23.00
2023-06-19T02:03:59.900Z,22.88
2023-06-19T02:06:22.581Z,22.85
2023-06-19T02:08:44.055Z,22.89
2023-06-19T02:11:05.527Z,22.98
2023-06-19T02:13:26.972Z,22.87
2023-06-19T02:15:48.521Z,22.86
2023-06-19T02:18:10.029Z,22.87
2023-06-19T02:20:31.600Z,22.63
2023-06-19T02:22:53.571Z,22.64
2023-06-19T02:25:15.176Z,22.66
2023-06-19T02:27:36.640Z,22.72
2023-06-19T02:29:58.130Z,22.77
2023-06-19T02:32:19.609Z,22.79
2023-06-19T02:34:41.096Z,22.50
2023-06-19T02:37:02.587Z,22.52
2023-06-19T02:39:24.889Z,22.64
2023-06-19T02:41:47.905Z,22.70
2023-06-19T02:44:09.379Z,22.47
2023-06-19T02:46:30.846Z,22.39
2023-06-19T02:48:52.370Z,22.51
2023-06-19T02:51:13.821Z,22.49
2023-06-19T02:53:35.520Z,22.50
2023-06-19T02:55:56.968Z,22.51
2023-06-19T02:58:18.441Z,22.33
2023-06-19T03:00:40.767Z,22.36
2023-06-19T03:03:02.301Z,22.16
2023-06-19T03:05:23.853Z,22.30
2023-06-19T03:07:45.987Z,22.31
2023-06-19T03:10:07.648Z,22.43
2023-06-19T03:12:29.082Z,22.45
2023-06-19T03:14:50.595Z,22.49
2023-06-19T03:17:13.236Z,22.51
2023-06-19T03:19:35.401Z,22.51
2023-06-19T03:21:56.860Z,22.46
2023-06-19T03:24:18.372Z,22.44
2023-06-19T03:26:39.879Z,22.51
2023-06-19T03:29:01.356Z,22.62
2023-06-19T03:31:22.797Z,22.52
2023-06-19T03:33:44.464Z,22.52
2023-06-19T03:36:06.792Z,22.56
2023-06-19T03:38:28.285Z,22.54
2023-06-19T03:40:49.734Z,22.55
2023-06-19T03:43:12.056Z,22.45
2023-06-19T03:45:33.570Z,22.32
2023-06-19T03:47:55.093Z,22.34
2023-06-19T03:50:30.893Z,22.32
2023-06-19T03:52:52.526Z,22.08
2023-06-19T03:55:13.984Z,22.34
2023-06-19T03:57:35.463Z,22.59
2023-06-19T03:59:57.705Z,22.82
2023-06-19T04:02:19.175Z,22.95
2023-06-19T04:04:40.621Z,23.09
2023-06-19T04:07:02.213Z,23.13
2023-06-19T04:09:23.734Z,23.17
2023-06-19T04:11:45.225Z,23.16
2023-06-19T04:14:06.670Z,23.35
2023-06-19T04:16:28.172Z,23.51
2023-06-19T04:18:49.679Z,23.38
2023-06-19T04:21:11.148Z,23.47
2023-06-19T04:23:32.605Z,23.39
2023-06-19T04:25:54.120Z,23.48
2023-06-19T04:28:15.567Z,23.62
2023-06-19T04:30:40.350Z,23.71
2023-06-19T04:33:01.955Z,23.82
2023-06-19T04:35:24.823Z,23.91
2023-06-19T04:37:46.479Z,23.86
2023-06-19T04:40:09.148Z,23.69
2023-06-19T04:42:30.669Z,23.80
2023-06-19T04:44:52.227Z,23.83
2023-06-19T04:47:14.571Z,23.56
2023-06-19T04:49:36.003Z,23.48
2023-06-19T04:51:58.538Z,23.58
2023-06-19T04:54:19.978Z,23.64
2023-06-19T04:56:41.540Z,23.68
2023-06-19T04:59:03.727Z,23.72
2023-06-19T05:01:29.084Z,23.68
2023-06-19T05:03:50.560Z,23.67
2023-06-19T05:06:12.590Z,23.62
2023-06-19T05:08:34.082Z,23.69
2023-06-19T05:10:55.907Z,23.75
2023-06-19T05:13:19.380Z,24.00
2023-06-19T05:15:40.894Z,24.25
2023-06-19T05:18:02.411Z,24.46
2023-06-19T05:20:24.175Z,24.46
2023-06-19T05:22:46.199Z,24.32
2023-06-19T05:25:08.320Z,24.54
2023-06-19T05:27:29.785Z,24.68
2023-06-19T05:29:51.253Z,24.83
2023-06-19T05:32:12.764Z,24.65
2023-06-19T05:34:34.261Z,24.73
2023-06-19T05:36:55.753Z,24.85
2023-06-19T05:39:19.971Z,24.96
2023-06-19T05:41:42.673Z,25.05
2023-06-19T05:44:04.307Z,25.21
2023-06-19T05:46:25.869Z,25.31
2023-06-19T05:48:48.471Z,25.34
2023-06-19T05:51:09.949Z,25.38
2023-06-19T05:53:32.877Z,25.22
2023-06-19T05:55:54.321Z,25.37
2023-06-19T05:58:15.801Z,25.51
2023-06-19T06:00:37.245Z,25.70
2023-06-19T06:03:02.549Z,25.84
2023-06-19T06:05:25.640Z,26.05
2023-06-19T06:07:47.526Z,26.31
2023-06-19T06:10:09.314Z,26.38
2023-06-19T06:12:31.003Z,26.18
2023-06-19T06:14:52.453Z,26.41
2023-06-19T06:17:13.928Z,26.33
2023-06-19T06:19:35.736Z,26.29
2023-06-19T06:21:57.678Z,26.37
2023-06-19T06:24:19.189Z,25.88
2023-06-19T06:26:40.713Z,25.93
2023-06-19T06:29:02.154Z,25.92
2023-06-19T06:31:24.522Z,25.87
2023-06-19T06:33:46.016Z,25.92
2023-06-19T06:36:09.001Z,25.63
2023-06-19T06:38:30.636Z,25.61
2023-06-19T06:40:52.917Z,25.68
2023-06-19T06:43:14.433Z,25.50
2023-06-19T06:45:38.638Z,25.57
2023-06-19T06:48:00.234Z,25.63
2023-06-19T06:50:22.183Z,25.74
2023-06-19T06:52:44.025Z,25.66
2023-06-19T06:55:06.129Z,25.66
2023-06-19T06:57:27.601Z,25.40
2023-06-19T06:59:49.103Z,25.25
2023-06-19T07:02:10.827Z,25.21
2023-06-19T07:04:32.826Z,25.31
2023-06-19T07:06:54.369Z,24.89
2023-06-19T07:09:18.761Z,24.94
2023-06-19T07:11:40.246Z,25.23
2023-06-19T07:14:03.758Z,25.20
2023-06-19T07:16:25.256Z,25.32
2023-06-19T07:18:46.733Z,25.35
2023-06-19T07:21:13.987Z,25.37
2023-06-19T07:23:37.237Z,25.46
2023-06-19T07:25:59.484Z,25.58
2023-06-19T07:28:20.941Z,26.19
2023-06-19T07:30:42.579Z,26.37
2023-06-19T07:33:04.079Z,26.54
2023-06-19T07:35:25.597Z,26.72
2023-06-19T07:37:47.049Z,26.74
2023-06-19T07:40:08.993Z,27.03
2023-06-19T07:42:30.444Z,27.04
2023-06-19T07:44:51.895Z,27.19
2023-06-19T07:47:14.678Z,27.30
2023-06-19T07:49:37.014Z,27.40
2023-06-19T07:51:58.465Z,27.59
2023-06-19T07:54:20.000Z,28.05
2023-06-19T07:56:42.649Z,28.32
2023-06-19T07:59:06.079Z,28.14
2023-06-19T08:01:27.786Z,28.22
2023-06-19T08:03:49.548Z,28.88
2023-06-19T08:06:11.228Z,28.71
2023-06-19T08:08:32.712Z,28.63
2023-06-19T08:10:54.230Z,28.93
2023-06-19T08:13:15.715Z,28.77
2023-06-19T08:15:37.178Z,29.14
2023-06-19T08:17:58.688Z,28.85
2023-06-19T08:20:22.336Z,29.01
2023-06-19T08:22:44.195Z,28.77
2023-06-19T08:25:06.092Z,28.83
2023-06-19T08:27:27.553Z,29.00
2023-06-19T08:29:49.012Z,29.09
2023-06-19T08:32:10.542Z,28.98
2023-06-19T08:34:31.993Z,29.09
2023-06-19T08:36:53.459Z,29.21
2023-06-19T08:39:15.045Z,29.60
2023-06-19T08:41:40.117Z,30.11
2023-06-19T08:44:01.626Z,29.88
2023-06-19T08:46:23.239Z,29.79
2023-06-19T08:48:45.573Z,29.56
2023-06-19T08:51:07.304Z,29.53
2023-06-19T08:53:28.999Z,30.00
2023-06-19T08:55:51.969Z,30.26
2023-06-19T08:58:22.617Z,30.35
2023-06-19T09:00:48.467Z,30.57
2023-06-19T09:03:14.658Z,30.86
2023-06-19T09:05:41.692Z,30.71
2023-06-19T09:08:03.385Z,31.33
2023-06-19T09:10:25.894Z,30.87
2023-06-19T09:13:04.783Z,30.91
2023-06-19T09:15:32.379Z,30.46
2023-06-19T09:18:08.201Z,30.48
2023-06-19T09:20:30.389Z,30.24
2023-06-19T09:22:56.544Z,30.36
2023-06-19T09:25:19.352Z,30.54
2023-06-19T09:27:40.829Z,30.15
2023-06-19T09:30:02.631Z,30.35
2023-06-19T09:32:32.382Z,30.25
2023-06-19T09:35:01.225Z,30.33
2023-06-19T09:37:25.400Z,30.42
2023-06-19T09:39:48.633Z,30.82
2023-06-19T09:42:11.428Z,30.57
2023-06-19T09:44:45.717Z,30.75
2023-06-19T09:47:19.551Z,30.80
2023-06-19T09:49:41.709Z,31.11
2023-06-19T09:52:03.854Z,31.25
2023-06-19T09:54:26.876Z,30.98
2023-06-19T09:56:52.143Z,30.95
2023-06-19T09:59:14.771Z,31.18
2023-06-19T10:01:38.078Z,31.01
2023-06-19T10:04:08.543Z,30.94
2023-06-19T10:06:31.124Z,31.06
2023-06-19T10:08:52.599Z,30.70
2023-06-19T10:11:14.903Z,30.72
2023-06-19T10:13:39.973Z,31.18
2023-06-19T10:16:02.100Z,31.56
2023-06-19T10:18:26.103Z,31.48
2023-06-19T10:20:48.369Z,31.49
2023-06-19T10:23:20.074Z,31.90
2023-06-19T10:25:44.442Z,32.58
2023-06-19T10:28:27.018Z,32.38
2023-06-19T10:31:05.144Z,32.54
2023-06-19T10:33:28.849Z,32.69
2023-06-19T10:35:50.465Z,32.72
2023-06-19T10:38:15.237Z,32.79
2023-06-19T10:40:38.284Z,32.35
2023-06-19T10:42:59.798Z,32.19
2023-06-19T10:45:22.204Z,32.15
2023-06-19T10:47:44.382Z,32.26
2023-06-19T10:50:16.220Z,31.72
2023-06-19T10:52:40.141Z,32.10
2023-06-19T10:55:01.669Z,32.05
2023-06-19T10:57:30.511Z,32.07
2023-06-19T10:59:52.905Z,32.35
2023-06-19T11:02:14.424Z,32.09
2023-06-19T11:04:39.528Z,32.71
2023-06-19T11:07:06.340Z,33.51
2023-06-19T11:09:27.940Z,33.97
2023-06-19T11:11:49.888Z,34.19
2023-06-19T11:14:13.658Z,34.44
2023-06-19T11:16:35.967Z,34.54
2023-06-19T11:18:58.672Z,34.64
2023-06-19T11:21:20.120Z,34.73
2023-06-19T11:23:41.591Z,35.60
2023-06-19T11:26:07.240Z,35.86
2023-06-19T11:28:30.518Z,34.82
2023-06-19T11:31:00.386Z,35.93
2023-06-19T11:33:25.836Z,35.95
2023-06-19T11:35:56.006Z,35.65
2023-06-19T11:38:22.661Z,35.14
2023-06-19T11:40:44.274Z,35.02
2023-06-19T11:43:05.733Z,35.92
2023-06-19T11:45:27.343Z,36.59
2023-06-19T11:47:50.612Z,36.55
2023-06-19T11:50:13.069Z,37.25
2023-06-19T11:52:34.624Z,38.10
2023-06-19T11:54:56.102Z,39.06
2023-06-19T11:57:17.729Z,39.21
2023-06-19T11:59:43.300Z,39.29
2023-06-19T12:02:05.091Z,38.70
2023-06-19T12:04:27.004Z,37.40
2023-06-19T12:06:48.561Z,38.17
2023-06-19T12:09:10.988Z,37.89
2023-06-19T12:11:32.681Z,37.48
2023-06-19T12:13:54.798Z,36.54
2023-06-19T12:16:16.307Z,37.11
2023-06-19T12:18:38.055Z,37.03
2023-06-19T12:20:59.671Z,37.14
2023-06-19T12:23:21.178Z,37.62
2023-06-19T12:25:42.658Z,36.37
2023-06-19T12:28:09.296Z,37.09
2023-06-19T12:30:30.859Z,37.86
2023-06-19T12:32:52.429Z,38.33
2023-06-19T12:35:13.933Z,37.84
2023-06-19T12:37:35.572Z,38.95
2023-06-19T12:39:57.108Z,38.89
2023-06-19T12:42:18.752Z,38.93
2023-06-19T12:44:41.180Z,38.92
2023-06-19T12:47:02.789Z,38.19
2023-06-19T12:49:24.230Z,39.58
2023-06-19T12:51:45.704Z,39.38
2023-06-19T12:54:07.181Z,38.66
2023-06-19T12:56:28.656Z,39.06
2023-06-19T12:58:50.133Z,39.73
2023-06-19T13:01:11.644Z,40.36
2023-06-19T13:03:33.208Z,39.80
2023-06-19T13:05:54.724Z,39.73
2023-06-19T13:08:16.853Z,39.23
2023-06-19T13:10:39.676Z,38.25
2023-06-19T13:13:01.211Z,38.00
2023-06-19T13:15:22.658Z,37.74
2023-06-19T13:17:44.162Z,37.22
2023-06-19T13:20:06.567Z,37.20
2023-06-19T13:22:28.283Z,37.20
2023-06-19T13:24:49.825Z,36.13
2023-06-19T13:27:11.544Z,37.04
2023-06-19T13:29:33.088Z,36.90
2023-06-19T13:31:54.568Z,36.92
2023-06-19T13:34:17.159Z,35.87
2023-06-19T13:36:39.686Z,35.21
2023-06-19T13:39:01.128Z,35.01
2023-06-19T13:41:25.132Z,35.82
2023-06-19T13:43:46.943Z,35.10
2023-06-19T13:46:09.187Z,34.95
2023-06-19T13:48:30.628Z,34.79
2023-06-19T13:50:52.090Z,34.61
2023-06-19T13:53:14.336Z,35.92
2023-06-19T13:55:36.917Z,35.92
2023-06-19T13:57:58.432Z,37.67
2023-06-19T14:00:20.371Z,38.11
2023-06-19T14:02:42.426Z,38.59
2023-06-19T14:05:08.803Z,40.05
2023-06-19T14:07:30.244Z,37.38
2023-06-19T14:09:54.470Z,36.74
2023-06-19T14:12:15.935Z,37.67
2023-06-19T14:14:37.800Z,37.36
2023-06-19T14:16:59.497Z,37.28
2023-06-19T14:19:21.139Z,36.84
2023-06-19T14:21:42.579Z,36.40
2023-06-19T14:24:04.580Z,34.80
2023-06-19T14:26:26.913Z,34.66
2023-06-19T14:28:48.479Z,36.52
2023-06-19T14:31:09.936Z,37.10
2023-06-19T14:33:32.118Z,36.51
2023-06-19T14:35:53.594Z,36.65
2023-06-19T14:38:15.961Z,37.57
2023-06-19T14:40:37.493Z,38.64
2023-06-19T14:42:58.969Z,38.07
2023-06-19T14:45:20.469Z,38.02
2023-06-19T14:47:42.173Z,37.69
2023-06-19T14:50:03.949Z,37.41
2023-06-19T14:52:25.560Z,36.22
2023-06-19T14:54:47.109Z,35.91
2023-06-19T14:57:08.710Z,36.03
2023-06-19T14:59:31.472Z,35.99
2023-06-19T15:01:52.989Z,36.22
2023-06-19T15:04:14.605Z,35.66
2023-06-19T15:06:36.246Z,35.53
2023-06-19T15:08:58.805Z,35.73
2023-06-19T15:11:20.385Z,35.53
2023-06-19T15:13:41.844Z,35.10
2023-06-19T15:16:06.115Z,35.02
2023-06-19T15:18:28.354Z,35.92
2023-06-19T15:20:50.042Z,36.29
2023-06-19T15:23:11.563Z,37.77
2023-06-19T15:25:33.009Z,38.05
2023-06-19T15:27:54.465Z,38.04
2023-06-19T15:30:15.939Z,38.08
2023-06-19T15:32:37.444Z,38.60
2023-06-19T15:34:58.911Z,40.13
2023-06-19T15:37:20.397Z,39.88
2023-06-19T15:39:43.074Z,39.06
2023-06-19T15:42:05.246Z,38.48
2023-06-19T15:44:26.692Z,39.98
2023-06-19T15:46:48.169Z,40.47
2023-06-19T15:49:12.713Z,40.44
2023-06-19T15:51:34.195Z,39.80
2023-06-19T15:53:55.659Z,39.81
2023-06-19T15:56:17.172Z,38.87
2023-06-19T15:58:39.174Z,37.75
2023-06-19T16:01:00.669Z,36.67
2023-06-19T16:03:22.449Z,36.53
2023-06-19T16:05:54.252Z,35.62
2023-06-19T16:08:26.548Z,35.58
2023-06-19T16:10:48.214Z,35.91
2023-06-19T16:13:09.756Z,36.86
2023-06-19T16:15:32.825Z,37.74
2023-06-19T16:17:55.857Z,37.69
2023-06-19T16:20:17.661Z,36.88
2023-06-19T16:22:39.126Z,36.12
2023-06-19T16:25:01.233Z,34.96
2023-06-19T16:27:22.695Z,34.58
2023-06-19T16:29:44.326Z,34.00
2023-06-19T16:32:10.318Z,34.07
2023-06-19T16:34:32.600Z,35.94
2023-06-19T16:36:54.065Z,36.67
2023-06-19T16:39:17.484Z,37.38
2023-06-19T16:41:39.140Z,37.40
2023-06-19T16:44:00.599Z,37.75
2023-06-19T16:46:22.119Z,37.96
2023-06-19T16:48:43.631Z,37.80
2023-06-19T16:51:05.156Z,37.44
2023-06-19T16:53:26.634Z,37.47
2023-06-19T16:55:50.316Z,37.61
2023-06-19T16:58:11.788Z,37.46
2023-06-19T17:00:33.314Z,37.39
2023-06-19T17:02:56.711Z,37.85
2023-06-19T17:05:18.340Z,37.89
2023-06-19T17:07:40.090Z,37.32
2023-06-19T17:10:03.488Z,37.38
2023-06-19T17:12:25.067Z,37.23
2023-06-19T17:14:46.533Z,36.51
2023-06-19T17:17:08.246Z,35.39
2023-06-19T17:19:29.818Z,34.84
2023-06-19T17:21:51.410Z,34.09
2023-06-19T17:24:16.416Z,33.55
2023-06-19T17:26:39.517Z,32.56
2023-06-19T17:29:05.109Z,32.49
2023-06-19T17:31:26.609Z,32.21
2023-06-19T17:33:48.068Z,31.96
2023-06-19T17:36:10.950Z,31.56
2023-06-19T17:38:32.805Z,31.38
2023-06-19T17:40:54.294Z,31.29
2023-06-19T17:43:15.778Z,31.11
2023-06-19T17:45:37.239Z,31.03
2023-06-19T17:47:58.747Z,30.76
2023-06-19T17:50:20.242Z,30.59
2023-06-19T17:52:41.754Z,30.44
2023-06-19T17:55:03.392Z,30.38
2023-06-19T17:57:25.620Z,30.38
2023-06-19T17:59:47.747Z,30.44
2023-06-19T18:02:09.285Z,30.33
2023-06-19T18:04:30.830Z,30.10
2023-06-19T18:06:52.288Z,30.11
2023-06-19T18:09:14.938Z,30.04
2023-06-19T18:11:36.498Z,29.96
2023-06-19T18:13:57.973Z,29.79
2023-06-19T18:16:19.457Z,29.66
2023-06-19T18:18:40.970Z,29.62
2023-06-19T18:21:02.455Z,29.64
2023-06-19T18:23:24.654Z,29.50
2023-06-19T18:25:46.188Z,29.19
2023-06-19T18:28:07.726Z,29.11
2023-06-19T18:30:29.269Z,28.84
2023-06-19T18:32:50.776Z,28.79
2023-06-19T18:35:12.242Z,28.70
2023-06-19T18:37:33.848Z,28.67
2023-06-19T18:39:55.322Z,28.38
2023-06-19T18:42:17.731Z,28.31
2023-06-19T18:44:39.182Z,28.35
2023-06-19T18:47:00.689Z,28.49
2023-06-19T18:49:22.537Z,28.68
2023-06-19T18:51:44.018Z,28.81
2023-06-19T18:54:05.577Z,28.97
2023-06-19T18:56:27.107Z,29.11
2023-06-19T18:58:48.656Z,29.23
2023-06-19T19:01:10.453Z,29.29
2023-06-19T19:03:32.104Z,29.28
2023-06-19T19:05:53.757Z,29.22
2023-06-19T19:08:15.742Z,29.21
2023-06-19T19:10:38.591Z,29.27
2023-06-19T19:13:00.058Z,29.22
2023-06-19T19:15:21.540Z,29.24
2023-06-19T19:17:43.114Z,29.15
2023-06-19T19:20:07.249Z,29.00
2023-06-19T19:22:28.736Z,29.05
2023-06-19T19:24:50.300Z,29.07
2023-06-19T19:27:11.833Z,28.92
2023-06-19T19:29:33.484Z,28.88
2023-06-19T19:31:55.023Z,28.96
2023-06-19T19:34:20.753Z,28.73
2023-06-19T19:36:43.182Z,28.36
2023-06-19T19:39:04.648Z,28.38
2023-06-19T19:41:26.131Z,28.32
2023-06-19T19:43:47.665Z,28.29
2023-06-19T19:46:09.225Z,28.24
2023-06-19T19:48:30.780Z,28.07
2023-06-19T19:50:52.296Z,28.06
2023-06-19T19:53:13.810Z,28.02
2023-06-19T19:55:35.335Z,27.96
2023-06-19T19:57:59.647Z,27.53
2023-06-19T20:00:21.186Z,27.26
2023-06-19T20:02:43.461Z,27.31
2023-06-19T20:05:05.505Z,27.36
2023-06-19T20:07:26.971Z,27.33
2023-06-19T20:09:48.432Z,27.13
2023-06-19T20:12:19.969Z,26.93
2023-06-19T20:14:42.675Z,26.72
2023-06-19T20:17:04.185Z,26.69
2023-06-19T20:19:26.957Z,26.64
2023-06-19T20:21:48.421Z,26.49
2023-06-19T20:24:09.906Z,26.19
2023-06-19T20:26:33.540Z,25.94
2023-06-19T20:28:56.227Z,25.92
2023-06-19T20:31:18.277Z,26.04
2023-06-19T20:33:39.752Z,25.84
2023-06-19T20:36:02.203Z,25.49
2023-06-19T20:38:24.461Z,25.49
2023-06-19T20:40:46.032Z,25.51
2023-06-19T20:43:08.763Z,25.53
2023-06-19T20:45:30.216Z,25.30
2023-06-19T20:47:53.318Z,25.36
2023-06-19T20:50:15.201Z,25.36
2023-06-19T20:52:36.720Z,25.39
2023-06-19T20:54:58.176Z,25.27
2023-06-19T20:57:19.683Z,25.23
2023-06-19T20:59:41.334Z,25.17
2023-06-19T21:02:04.006Z,24.89
2023-06-19T21:04:25.490Z,24.87
2023-06-19T21:06:46.964Z,24.94
2023-06-19T21:09:09.494Z,25.04
2023-06-19T21:11:31.424Z,24.92
2023-06-19T21:13:52.892Z,24.79
2023-06-19T21:16:14.563Z,24.73
2023-06-19T21:18:36.198Z,24.68
2023-06-19T21:20:57.709Z,24.43
2023-06-19T21:23:19.165Z,24.37
2023-06-19T21:25:40.867Z,24.36
2023-06-19T21:28:02.314Z,24.44
2023-06-19T21:30:23.919Z,24.47
2023-06-19T21:32:45.644Z,24.59
2023-06-19T21:35:07.547Z,24.63
2023-06-19T21:37:30.075Z,24.49
2023-06-19T21:39:51.558Z,24.55
2023-06-19T21:42:13.008Z,24.44
2023-06-19T21:44:34.475Z,24.35
2023-06-19T21:46:55.941Z,24.28
2023-06-19T21:49:17.483Z,24.31
2023-06-19T21:51:38.945Z,24.41
2023-06-19T21:54:01.292Z,24.32
2023-06-19T21:56:22.858Z,24.09
2023-06-19T21:58:44.343Z,24.18
2023-06-19T22:01:05.841Z,24.25
2023-06-19T22:03:27.496Z,24.31
2023-06-19T22:05:49.045Z,24.40
2023-06-19T22:08:10.553Z,24.40
2023-06-19T22:10:33.215Z,24.23
2023-06-19T22:12:54.805Z,23.97
2023-06-19T22:15:16.528Z,23.90
2023-06-19T22:17:38.387Z,23.82
2023-06-19T22:19:59.896Z,23.79
2023-06-19T22:22:21.549Z,23.86
2023-06-19T22:24:43.168Z,23.95
2023-06-19T22:27:05.662Z,24.04
2023-06-19T22:29:27.118Z,24.06
2023-06-19T22:31:48.648Z,24.07
2023-06-19T22:34:10.176Z,24.15
2023-06-19T22:36:31.658Z,24.14
2023-06-19T22:38:53.750Z,24.16
2023-06-19T22:41:15.343Z,24.16
2023-06-19T22:43:36.799Z,24.19
2023-06-19T22:45:58.683Z,24.14
2023-06-19T22:48:20.240Z,24.13
2023-06-19T22:50:41.674Z,24.15
2023-06-19T22:53:03.908Z,24.05
2023-06-19T22:55:25.872Z,23.90
2023-06-19T22:57:47.890Z,23.77
2023-06-19T23:00:13.678Z,23.78
2023-06-19T23:02:35.430Z,23.82
2023-06-19T23:04:57.083Z,23.82
2023-06-19T23:07:18.553Z,23.84
2023-06-19T23:09:39.992Z,23.83
2023-06-19T23:12:02.304Z,23.80
2023-06-19T23:14:24.035Z,23.65
2023-06-19T23:16:45.524Z,23.40
2023-06-19T23:19:07.399Z,23.39
2023-06-19T23:21:31.479Z,23.50
2023-06-19T23:23:53.056Z,23.43
2023-06-19T23:26:15.566Z,23.48
2023-06-19T23:28:37.038Z,23.45
2023-06-19T23:30:59.785Z,23.31
2023-06-19T23:33:21.480Z,23.03
2023-06-19T23:35:42.954Z,23.06
2023-06-19T23:38:04.396Z,23.07
2023-06-19T23:40:27.877Z,22.87
2023-06-19T23:42:49.363Z,22.83
2023-06-19T23:45:11.059Z,22.86
2023-06-19T23:47:32.535Z,22.96
2023-06-19T23:49:54.045Z,22.97
2023-06-19T23:52:16.778Z,22.79
2023-06-19T23:54:39.590Z,22.79
2023-06-19T23:57:01.056Z,22.56
2023-06-19T23:59:22.513Z,22.64
